CYMT

Chapais Airport

Chibougamau, Quebec, Canada
METAR CYMT 251700Z AUTO 36006KT 9SM BKN046 OVC055 04/M01 A2998 RMK SLP170
Observed Flight Rules
Apr-25 @ 17:00 UTC (an hour ago) Visual Flight Rules
Wind Visibility Clouds
360° at 6 knots 9 miles
  • Broken at 4,600' AGL
  • Overcast at 5,500' AGL
Temperatures Readings
Current 4°C / 39°F
Dewpoint -1°C / 30°F
Humidity 70%
Altimeter 29.98" Hg
Pressure 1017 hPa
Elevation 387
METAR CYMT 251700Z AUTO 36006KT 9SM BKN046 OVC055 04/M01 A2998 RMK SLP170
Observed Flight Rules
Apr-25 @ 17:00 UTC
(an hour ago)
VFR
Wind Visibility
360° at 6 knots 9 miles
Clouds
  • Broken at 4,600' AGL
  • Overcast at 5,500' AGL
Temperature Dewpoint
4°C / 39°F -1°C / 30°F
Humidity Altimeter Pressure
70% 29.98" Hg 1017 hPa